Latest Weather Observations for Yunta

IDS60801

Issued at 11:11 pm CST Saturday 25 May 2019 (issued every 10 minutes, with the page automatically refreshed every 10 minutes)

About weather observations | Map of weather stations | Latest weather observations for SA | Other Formats
Station Details ID: 020062 Name: YUNTA AIRSTRIP Lat: -32.57 Lon: 139.56 Height: 300.0 m
Data from the previous 72 hours. | See also: Recent months at Yunta
Date/Time
CST
Temp
°C
App
Temp
°C
Dew
Point
°C
Rel
Hum
%
Delta-T
°C
Wind Press
QNH
hPa
Press
MSL
hPa
Rain since
9am
mm
Dir  Spd
km/h
Gust
km/h
Spd
kts
Gust
kts
25/11:00pm 10.9 9.1 7.8 81 1.5 SSW 7 9 4 5 1019.7 1019.6 0.0
25/10:30pm 11.8 9.7 8.1 78 1.8 SSW 9 13 5 7 1019.4 1019.3 0.0
25/10:00pm 12.2 9.7 8.3 77 2.0 SSW 11 15 6 8 1019.6 1019.5 0.0
25/09:30pm 12.4 10.3 8.3 76 2.1 SW 9 13 5 7 1019.6 1019.5 0.0
25/09:00pm 13.2 10.4 8.7 74 2.3 SW 13 17 7 9 1019.4 1019.3 0.0
25/08:30pm 13.9 11.6 8.9 72 2.6 WSW 11 15 6 8 1019.2 1019.1 0.0
25/08:00pm 14.5 10.2 9.5 72 2.6 SW 22 30 12 16 1018.8 1018.8 0.0
25/07:30pm 15.0 11.7 9.4 69 2.9 SW 17 26 9 14 1018.4 1018.4 0.0
25/07:00pm 15.5 11.5 9.0 65 3.4 SW 20 30 11 16 1017.9 1017.8 0.0
25/06:30pm 15.8 12.9 4.5 47 5.4 W 9 28 5 15 1017.2 1017.1 0.0
25/06:00pm 16.8 13.1 4.2 43 6.0 WSW 13 17 7 9 1016.6 1016.5 0.0
25/05:30pm 17.4 12.9 4.0 41 6.4 WSW 17 24 9 13 1016.2 1016.1 0.0
25/05:00pm 18.3 11.9 3.4 37 7.1 W 26 35 14 19 1015.7 1015.6 0.0
25/04:30pm 19.3 12.7 2.2 32 8.0 W 26 33 14 18 1015.3 1015.3 0.0
25/04:00pm 20.1 14.8 2.9 32 8.2 W 20 28 11 15 1015.1 1015.0 0.0
25/03:30pm 20.2 14.4 4.3 35 7.8 W 24 33 13 18 1015.3 1015.3 0.0
25/03:00pm 20.2 14.1 3.0 32 8.2 W 24 39 13 21 1015.1 1015.0 0.0
25/02:30pm 20.4 13.9 2.7 31 8.4 W 26 33 14 18 1015.2 1015.2 0.0
25/02:00pm 20.1 14.0 2.9 32 8.2 W 24 33 13 18 1015.7 1015.6 0.0
25/01:30pm 20.2 13.7 2.5 31 8.4 W 26 33 14 18 1015.9 1015.8 0.0
25/01:00pm 19.9 15.2 3.2 33 8.0 WSW 17 26 9 14 1015.9 1015.8 0.0
25/12:30pm 19.7 14.6 3.0 33 7.9 W 19 30 10 16 1016.4 1016.3 0.0
25/12:00pm 19.4 15.1 5.1 39 7.1 W 17 24 9 13 1017.0 1016.9 0.0
25/11:30am 18.7 14.9 3.7 37 7.2 WSW 13 26 7 14 1017.6 1017.5 0.0
25/11:00am 18.2 14.5 4.4 40 6.7 WSW 13 20 7 11 1018.0 1018.0 0.0
25/10:30am 17.4 14.7 5.4 45 5.9 WSW 9 15 5 8 1018.5 1018.5 0.0
25/10:00am 16.5 13.8 5.5 48 5.4 WSW 9 15 5 8 1018.6 1018.6 0.0
25/09:30am 15.7 13.2 8.0 60 3.9 WSW 11 15 6 8 1018.7 1018.7 0.0
25/09:00am 15.1 14.6 7.9 62 3.6 CALM 0 7 0 4 1018.5 1018.5 0.0
25/08:30am 13.7 12.9 6.3 61 3.6 CALM 0 0 0 0 1018.2 1018.2 0.0
25/08:00am 11.5 10.5 7.2 75 2.1 NNW 2 6 1 3 1018.0 1018.0 0.0
25/07:30am 7.2 5.8 3.8 79 1.5 CALM 0 0 0 0 1017.8 1017.7 0.0
25/07:00am 8.2 7.1 5.1 81 1.4 CALM 0 0 0 0 1017.6 1017.5 0.0
25/06:30am 8.9 6.8 5.8 81 1.4 WSW 6 7 3 4 1017.5 1017.4 0.0
25/06:00am 8.2 6.1 3.9 74 1.9 WSW 4 6 2 3 1017.4 1017.3 0.0
25/05:30am 8.6 6.4 3.2 69 2.3 SW 4 6 2 3 1017.4 1017.3 0.0
25/05:00am 8.6 7.1 3.0 68 2.4 CALM 0 0 0 0 1017.4 1017.3 0.0
25/04:30am 10.2 7.4 5.0 70 2.4 W 9 11 5 6 1017.3 1017.2 0.0
25/04:00am 8.9 6.6 2.5 64 2.7 SW 4 9 2 5 1017.3 1017.2 0.0
25/03:30am 8.5 5.2 -1.3 50 3.8 WSW 6 11 3 6 1017.3 1017.2 0.0
25/03:00am 9.4 6.9 -1.0 48 4.1 W 2 6 1 3 1017.3 1017.2 0.0
25/02:30am 10.7 8.7 0.2 48 4.3 CALM 0 0 0 0 1017.3 1017.2 0.0
25/02:00am 12.6 9.9 0.4 43 5.2 SW 4 6 2 3 1017.5 1017.4 0.0
25/01:30am 14.1 12.0 1.4 42 5.6 SSE 2 7 1 4 1017.7 1017.6 0.0
25/01:00am 14.0 10.8 0.6 40 5.8 W 7 11 4 6 1017.5 1017.4 0.0
25/12:30am 15.7 12.2 1.1 37 6.4 W 9 13 5 7 1017.8 1017.7 0.0
25/12:00am 16.4 12.5 1.3 36 6.7 NW 11 19 6 10 1017.7 1017.6 0.0
 
Date/Time
CST
Temp
°C
App
Temp
°C
Dew
Point
°C
Rel
Hum
%
Delta-T
°C
Wind Press
QNH
hPa
Press
MSL
hPa
Rain since
9am
mm
Dir  Spd
km/h
Gust
km/h
Spd
kts
Gust
kts
24/11:30pm 16.4 11.5 1.7 37 6.6 NNW 17 19 9 10 1017.5 1017.4 0.0
24/11:00pm 17.3 11.8 1.7 35 7.1 N 20 22 11 12 1017.7 1017.6 0.0
24/10:30pm 17.7 12.4 1.7 34 7.3 NNW 19 20 10 11 1017.9 1017.8 0.0
24/10:00pm 17.3 12.4 1.7 35 7.1 N 17 20 9 11 1018.1 1018.1 0.0
24/09:30pm 17.5 12.8 1.1 33 7.4 N 15 19 8 10 1018.1 1018.1 0.0
24/09:00pm 18.5 13.8 1.1 31 7.9 N 15 19 8 10 1018.2 1018.2 0.0
24/08:30pm 19.1 14.4 0.7 29 8.3 N 15 19 8 10 1018.2 1018.2 0.0
24/08:00pm 20.3 15.1 0.2 26 9.1 NNW 17 24 9 13 1018.2 1018.2 0.0
24/07:30pm 22.0 16.3 0.5 24 9.9 NNW 20 28 11 15 1018.2 1018.2 0.0
24/07:00pm 22.7 15.9 0.5 23 10.3 NW 26 33 14 18 1018.0 1018.0 0.0
24/06:30pm 22.1 16.9 0.0 23 10.1 NW 17 20 9 11 1017.9 1017.8 0.0
24/06:00pm 22.8 17.0 0.0 22 10.5 WNW 20 28 11 15 1017.6 1017.5 0.0
24/05:30pm 23.6 17.1 0.0 21 10.9 NW 24 35 13 19 1017.4 1017.3 0.0
24/05:00pm 24.3 17.1 0.6 21 11.1 NW 28 37 15 20 1017.2 1017.1 0.0
24/04:30pm 24.5 16.8 0.1 20 11.4 NW 30 39 16 21 1017.3 1017.2 0.0
24/04:00pm 24.9 18.0 0.4 20 11.5 NW 26 37 14 20 1017.3 1017.2 0.0
24/03:30pm 25.1 18.3 0.6 20 11.6 NW 26 33 14 18 1017.4 1017.3 0.0
24/03:00pm 26.4 18.5 0.9 19 12.2 NW 32 44 17 24 1017.5 1017.4 0.0
24/02:30pm 25.8 18.7 1.2 20 11.8 NW 28 41 15 22 1017.4 1017.3 0.0
24/02:00pm 26.2 19.3 2.8 22 11.6 NNW 28 37 15 20 1017.7 1017.6 0.0
24/01:40pm 26.1 19.1 2.1 21 11.7 NNW 28 46 15 25 1017.9 1017.8 0.0
24/01:30pm 26.2 19.7 2.8 22 11.6 NNW 26 39 14 21 1018.1 1018.1 0.0
24/01:00pm 25.8 19.0 3.1 23 11.3 NNW 28 46 15 25 1018.5 1018.5 0.0
24/12:30pm 25.1 18.0 3.7 25 10.7 NNW 30 43 16 23 1019.1 1019.0 0.0
24/12:00pm 24.5 17.4 3.8 26 10.3 NW 30 39 16 21 1019.7 1019.6 0.0
24/11:30am 23.9 16.8 3.8 27 10.0 NNW 30 39 16 21 1020.2 1020.1 0.0
24/11:00am 24.5 17.4 3.8 26 10.3 NNW 30 39 16 21 1020.7 1020.6 0.0
24/10:30am 23.6 17.0 4.0 28 9.7 NNW 28 37 15 20 1020.9 1020.9 0.0
24/10:00am 22.0 16.6 4.6 32 8.7 NNW 22 28 12 15 1021.3 1021.3 0.0
24/09:30am 20.1 15.1 4.6 36 7.6 N 20 24 11 13 1021.4 1021.4 0.0
24/09:00am 18.8 13.5 4.9 40 6.8 N 22 30 12 16 1021.5 1021.5 0.0
24/08:30am 17.7 12.8 5.0 43 6.2 N 20 26 11 14 1021.4 1021.4 0.0
24/08:00am 16.7 11.4 5.0 46 5.7 NNW 22 26 12 14 1021.4 1021.4 0.0
24/07:30am 14.6 10.2 4.9 52 4.6 N 17 20 9 11 1021.3 1021.3 0.0
24/07:00am 15.3 10.9 4.7 49 5.0 N 17 19 9 10 1021.4 1021.4 0.0
24/06:30am 16.2 11.4 4.6 46 5.5 N 19 20 10 11 1021.1 1021.1 0.0
24/06:00am 16.5 12.5 4.9 46 5.6 NNW 15 19 8 10 1021.0 1021.0 0.0
24/05:30am 17.0 12.2 4.7 44 5.9 NNW 19 22 10 12 1020.5 1020.4 0.0
24/05:00am 16.7 12.3 4.7 45 5.8 NNW 17 20 9 11 1020.4 1020.3 0.0
24/04:30am 16.9 12.5 4.9 45 5.8 NNW 17 22 9 12 1020.2 1020.1 0.0
24/04:00am 16.8 11.8 4.8 45 5.8 NNW 20 26 11 14 1020.3 1020.2 0.0
24/03:30am 16.6 11.8 4.6 45 5.7 NNW 19 22 10 12 1020.7 1020.6 0.0
24/03:00am 17.0 12.3 5.0 45 5.8 NNW 19 22 10 12 1020.9 1020.9 0.0
24/02:30am 17.0 12.3 5.0 45 5.8 NNW 19 20 10 11 1021.0 1021.0 0.0
24/02:00am 17.1 12.8 5.1 45 5.8 NNW 17 19 9 10 1021.0 1021.0 0.0
24/01:30am 16.9 13.0 5.2 46 5.7 NNW 15 17 8 9 1021.2 1021.2 0.0
24/01:00am 17.0 12.8 5.6 47 5.6 NNW 17 19 9 10 1021.2 1021.2 0.0
24/12:30am 17.3 13.1 5.6 46 5.7 NNW 17 20 9 11 1021.4 1021.4 0.0
24/12:00am 17.3 13.1 5.6 46 5.7 N 17 20 9 11 1021.6 1021.6 0.0
 
Date/Time
CST
Temp
°C
App
Temp
°C
Dew
Point
°C
Rel
Hum
%
Delta-T
°C
Wind Press
QNH
hPa
Press
MSL
hPa
Rain since
9am
mm
Dir  Spd
km/h
Gust
km/h
Spd
kts
Gust
kts
23/11:30pm 16.7 12.4 5.3 47 5.5 NNW 17 19 9 10 1022.2 1022.2 0.0
23/11:00pm 17.2 12.6 5.5 46 5.7 NNW 19 20 10 11 1022.2 1022.2 0.0
23/10:30pm 17.4 13.2 5.7 46 5.7 N 17 17 9 9 1022.7 1022.6 0.0
23/10:00pm 17.8 13.9 5.4 44 6.1 N 15 17 8 9 1022.8 1022.7 0.0
23/09:30pm 17.3 13.4 5.3 45 5.8 N 15 17 8 9 1022.8 1022.7 0.0
23/09:00pm 18.4 14.0 4.9 41 6.6 N 17 19 9 10 1023.0 1022.9 0.0
23/08:30pm 17.7 14.1 5.0 43 6.2 N 13 17 7 9 1022.9 1022.8 0.0
23/08:00pm 18.3 14.3 4.8 41 6.6 N 15 17 8 9 1022.8 1022.7 0.0
23/07:30pm 18.8 15.8 4.2 38 7.0 N 9 15 5 8 1022.8 1022.7 0.0
23/07:00pm 20.0 16.6 4.1 35 7.7 NW 11 15 6 8 1022.8 1022.7 0.0
23/06:30pm 21.6 18.2 4.2 32 8.5 NW 11 15 6 8 1022.6 1022.5 0.0
23/06:00pm 22.5 18.8 4.5 31 8.9 NW 13 17 7 9 1022.2 1022.2 0.0
23/05:30pm 23.6 19.2 4.5 29 9.6 NW 17 22 9 12 1022.1 1022.1 0.0
23/05:00pm 24.5 19.6 4.3 27 10.2 NW 19 26 10 14 1022.0 1022.0 0.0
23/04:30pm 25.5 20.1 4.6 26 10.6 WNW 22 30 12 16 1021.9 1021.9 0.0
23/04:00pm 26.2 20.7 4.1 24 11.2 NW 22 30 12 16 1021.8 1021.8 0.0
23/03:30pm 25.6 20.6 4.7 26 10.6 NW 20 28 11 15 1022.0 1022.0 0.0
23/03:00pm 26.4 19.9 4.8 25 11.1 NW 28 39 15 21 1022.1 1022.1 0.0
23/02:30pm 26.4 20.3 4.8 25 11.1 NW 26 33 14 18 1022.3 1022.3 0.0
23/02:00pm 26.0 20.4 5.6 27 10.6 NW 24 35 13 19 1022.6 1022.5 0.0
23/01:30pm 26.0 20.4 5.6 27 10.6 WNW 24 32 13 17 1023.0 1022.9 0.0
23/01:00pm 26.4 20.8 5.4 26 10.9 NW 24 33 13 18 1023.4 1023.3 0.0
23/12:30pm 25.6 20.0 5.2 27 10.5 NW 24 33 13 18 1024.1 1024.1 0.0
23/12:00pm 25.8 21.0 5.4 27 10.5 NW 20 30 11 16 1024.6 1024.6 0.0
23/11:30am 25.0 20.9 6.2 30 9.8 NNW 17 26 9 14 1025.3 1025.3 0.0
23/11:00am 23.8 18.5 6.6 33 9.0 NNW 24 32 13 17 1025.7 1025.7 0.0
23/10:30am 22.8 18.5 7.0 36 8.2 N 19 26 10 14 1026.3 1026.2 0.0
23/10:00am 21.9 17.8 7.7 40 7.5 N 19 24 10 13 1026.3 1026.2 0.0
23/09:30am 19.8 16.5 7.9 46 6.2 N 15 19 8 10 1026.4 1026.3 0.0
23/09:00am 19.0 15.3 7.8 48 5.8 N 17 22 9 12 1026.5 1026.4 0.0
23/08:30am 17.5 13.7 7.5 52 5.1 NNW 17 20 9 11 1026.4 1026.3 0.0
23/08:00am 15.4 11.6 7.4 59 4.0 NNW 17 20 9 11 1026.2 1026.1 0.0
23/07:44am 13.7 11.4 7.5 66 3.1 N 9 17 5 9 1026.1 1026.0 0.0
23/07:30am 8.7 6.7 4.3 74 2.0 NE 4 9 2 5 1025.9 1025.9 0.0
23/07:00am 5.5 2.5 0.7 71 1.9 NNE 6 9 3 5 1025.8 1025.8 0.0
23/06:30am 6.1 4.3 1.4 72 1.9 CALM 0 2 0 1 1025.6 1025.6 0.0
23/06:00am 6.7 5.1 2.6 75 1.7 CALM 0 2 0 1 1025.3 1025.3 0.0
23/05:30am 6.5 4.1 2.0 73 1.9 E 4 6 2 3 1025.0 1025.0 0.0
23/05:00am 6.8 5.0 1.3 68 2.2 CALM 0 0 0 0 1024.9 1024.9 0.0
23/04:30am 7.8 5.5 2.9 71 2.1 WSW 4 6 2 3 1024.7 1024.7 0.0
23/04:00am 8.1 6.7 3.4 72 2.0 CALM 0 4 0 2 1024.6 1024.6 0.0
23/03:30am 8.3 6.7 2.3 66 2.5 CALM 0 0 0 0 1024.7 1024.7 0.0
23/03:00am 9.7 8.0 3.9 67 2.6 WSW 2 6 1 3 1025.1 1025.1 0.0
23/02:30am 10.4 9.1 4.1 65 2.8 CALM 0 0 0 0 1025.4 1025.4 0.0
23/02:00am 11.1 10.0 5.2 67 2.7 CALM 0 0 0 0 1025.5 1025.5 0.0
23/01:30am 10.8 9.5 4.0 63 3.1 CALM 0 0 0 0 1025.5 1025.5 0.0
23/01:00am 11.3 9.5 5.2 66 2.8 ENE 4 6 2 3 1025.6 1025.6 0.0
23/12:30am 11.4 10.3 5.3 66 2.8 CALM 0 0 0 0 1025.7 1025.7 0.0
23/12:00am 11.4 9.0 4.2 61 3.3 N 6 7 3 4 1025.9 1025.9 0.0
 
Date/Time
CST
Temp
°C
App
Temp
°C
Dew
Point
°C
Rel
Hum
%
Delta-T
°C
Wind Press
QNH
hPa
Press
MSL
hPa
Rain since
9am
mm
Dir  Spd
km/h
Gust
km/h
Spd
kts
Gust
kts
22/11:30pm 12.1 10.8 4.3 59 3.6 CALM 0 0 0 0 1026.1 1026.0 0.0

Other formats

Comma delimited format used in spreadsheet applications
http://www.bom.gov.au/fwo/IDS60801/IDS60801.94684.axf

JavaScript Object Notation format (JSON) in row-major order
http://www.bom.gov.au/fwo/IDS60801/IDS60801.94684.json

Data quality

Most of these data are generated automatically and are frequently updated. Quality checks on data are not normally performed. It is possible for incorrect values to appear. Refer to information at About Latest Weather Observations and please check the disclaimer before using these data.